LEBB/BIO METAR and TAF weather

Enter ICAO airport designator
Station Type Date Time Source
LEBB METAR 2021/03/03 21:00 UTC NOAA

LEBB 032100Z 08002KT 9999 FEW040 12/10 Q1026 NOSIG


Station Type Date Time Source
LEBB Decoded METAR 2021/03/03 21:00 UTC NOAA

Bilbao / Sondica, Spain (LEBB) 43-18N 002-56W 37M
Mar 03, 2021 - 04:00 PM EST / 2021.03.03 2100 UTC
Wind: from the E (080 degrees) at 2 MPH (2 KT):0
Visibility: greater than 7 mile(s):0
Sky conditions: mostly clear
Temperature: 53 F (12 C)
Dew Point: 50 F (10 C)
Relative Humidity: 87%
Pressure (altimeter): 30.30 in. Hg (1026 hPa)
ob: LEBB 032100Z 08002KT 9999 FEW040 12/10 Q1026 NOSIG
cycle: 21

Station Type Date Time Source
LEBB TAF 2021/03/03 18:27 UTC NOAA

TAF LEBB 031700Z 0318/0418 VRB05KT 9999 SCT040 TX20/0415Z TN10/0406Z
TEMPO 0318/0320 28008KT
TEMPO 0412/0418 32010KT

Example: see airport list